createdAt,value
2018-12-02T00:04:08.747Z,99.90
2018-12-02T00:08:53.645Z,99.90
2018-12-02T00:13:38.408Z,99.90
2018-12-02T00:18:23.421Z,99.90
2018-12-02T00:23:09.095Z,99.90
2018-12-02T00:27:56.015Z,99.90
2018-12-02T00:32:40.879Z,99.90
2018-12-02T00:37:25.714Z,99.90
2018-12-02T00:42:10.578Z,99.90
2018-12-02T00:46:55.666Z,99.90
2018-12-02T00:51:40.510Z,99.90
2018-12-02T00:56:24.222Z,99.90
2018-12-02T01:01:08.827Z,99.90
2018-12-02T01:05:53.824Z,99.90
2018-12-02T01:10:38.659Z,99.90
2018-12-02T01:15:25.603Z,99.90
2018-12-02T01:20:12.770Z,99.90
2018-12-02T01:24:57.637Z,99.90
2018-12-02T01:29:42.406Z,99.90
2018-12-02T01:34:27.253Z,99.90
2018-12-02T01:39:12.007Z,99.90
2018-12-02T01:43:56.851Z,99.90
2018-12-02T01:48:41.687Z,99.90
2018-12-02T01:53:26.527Z,99.90
2018-12-02T01:58:11.284Z,99.90
2018-12-02T02:02:56.757Z,99.90
2018-12-02T02:07:41.532Z,99.90
2018-12-02T02:12:26.334Z,99.90
2018-12-02T02:17:11.109Z,99.90
2018-12-02T02:21:55.944Z,99.90
2018-12-02T02:26:40.675Z,99.90
2018-12-02T02:31:25.572Z,99.90
2018-12-02T02:36:10.515Z,99.90
2018-12-02T02:40:55.473Z,99.90
2018-12-02T02:45:40.225Z,99.90
2018-12-02T02:50:25.886Z,99.90
2018-12-02T02:55:10.715Z,99.90
2018-12-02T02:59:55.565Z,99.90
2018-12-02T03:04:40.413Z,99.90
2018-12-02T03:09:25.194Z,99.90
2018-12-02T03:14:09.996Z,99.90
2018-12-02T03:18:54.923Z,99.90
2018-12-02T03:23:39.649Z,99.90
2018-12-02T03:28:24.531Z,99.90
2018-12-02T03:33:09.342Z,99.90
2018-12-02T03:37:54.864Z,99.90
2018-12-02T03:42:39.650Z,99.90
2018-12-02T03:47:24.395Z,99.90
2018-12-02T03:52:09.249Z,99.90
2018-12-02T03:56:54.036Z,99.90
2018-12-02T04:01:39.394Z,99.90
2018-12-02T04:06:24.448Z,99.90
2018-12-02T04:11:09.696Z,99.90
2018-12-02T04:15:54.520Z,99.90
2018-12-02T04:20:39.315Z,99.90
2018-12-02T04:25:25.943Z,99.90
2018-12-02T04:30:13.634Z,99.90
2018-12-02T04:34:58.459Z,99.90
2018-12-02T04:39:43.263Z,99.90
2018-12-02T04:44:28.066Z,99.90
2018-12-02T04:49:12.797Z,99.90
2018-12-02T04:53:57.692Z,99.90
2018-12-02T04:58:42.524Z,99.90
2018-12-02T05:03:27.298Z,99.90
2018-12-02T05:08:12.113Z,99.90
2018-12-02T05:12:56.994Z,99.90
2018-12-02T05:17:41.919Z,99.90
2018-12-02T05:22:26.739Z,99.90
2018-12-02T05:27:11.557Z,99.90
2018-12-02T05:31:56.347Z,99.90
2018-12-02T05:36:41.113Z,99.90
2018-12-02T05:41:30.889Z,99.90
2018-12-02T05:46:15.699Z,99.90
2018-12-02T05:51:00.516Z,99.90
2018-12-02T05:55:45.356Z,99.90
2018-12-02T06:00:30.278Z,99.90
2018-12-02T06:05:15.197Z,99.90
2018-12-02T06:10:00.076Z,99.90
2018-12-02T06:14:44.975Z,99.90
2018-12-02T06:19:29.809Z,99.90
2018-12-02T06:24:14.636Z,99.90
2018-12-02T06:28:59.541Z,99.90
2018-12-02T06:33:44.446Z,99.90
2018-12-02T06:38:29.289Z,99.90
2018-12-02T06:43:14.146Z,99.90
2018-12-02T06:47:59.054Z,99.90
2018-12-02T06:52:43.935Z,99.90
2018-12-02T06:57:30.651Z,99.90
2018-12-02T07:02:57.501Z,99.90
2018-12-02T07:07:42.446Z,99.90
2018-12-02T07:12:27.310Z,99.90
2018-12-02T07:17:12.103Z,99.90
2018-12-02T07:22:02.845Z,99.90
2018-12-02T07:26:47.620Z,99.90
2018-12-02T07:31:32.460Z,99.90
2018-12-02T07:36:17.234Z,99.90
2018-12-02T07:41:02.311Z,99.90
2018-12-02T07:45:47.141Z,99.90
2018-12-02T07:50:31.914Z,99.90
2018-12-02T07:55:16.813Z,99.90
2018-12-02T08:00:01.708Z,99.90
2018-12-02T08:04:46.661Z,99.90
2018-12-02T08:09:31.604Z,99.90
2018-12-02T08:14:16.460Z,99.90
2018-12-02T08:19:01.362Z,99.90
2018-12-02T08:23:46.373Z,99.90
2018-12-02T08:28:31.412Z,99.90
2018-12-02T08:33:16.459Z,99.90
2018-12-02T08:38:04.192Z,99.90
2018-12-02T08:42:49.109Z,99.90
2018-12-02T08:47:34.003Z,99.90
2018-12-02T08:52:19.645Z,99.90
2018-12-02T08:57:04.633Z,99.90
2018-12-02T09:01:49.698Z,99.90
2018-12-02T09:06:34.776Z,99.90
2018-12-02T09:11:19.776Z,99.90
2018-12-02T09:16:04.702Z,99.90
2018-12-02T09:20:49.625Z,99.90
2018-12-02T09:25:34.436Z,99.90
2018-12-02T09:30:20.656Z,99.90
2018-12-02T09:35:05.991Z,99.90
2018-12-02T09:39:51.146Z,99.90
2018-12-02T09:44:36.086Z,99.90
2018-12-02T09:49:21.060Z,99.90
2018-12-02T09:54:06.061Z,99.90
2018-12-02T09:58:51.320Z,99.90
2018-12-02T10:03:36.347Z,99.90
2018-12-02T10:08:21.279Z,99.90
2018-12-02T10:13:09.824Z,99.90
2018-12-02T10:17:54.859Z,99.90
2018-12-02T10:22:40.269Z,99.90
2018-12-02T10:27:25.685Z,99.90
2018-12-02T10:32:12.489Z,99.90
2018-12-02T10:36:56.395Z,99.90
2018-12-02T10:41:41.800Z,99.90
2018-12-02T10:46:27.328Z,99.90
2018-12-02T10:51:12.808Z,99.90
2018-12-02T10:55:59.111Z,99.90
2018-12-02T11:00:49.244Z,99.90
2018-12-02T11:05:34.573Z,99.90
2018-12-02T11:10:19.890Z,98.80
2018-12-02T11:15:05.451Z,98.80
2018-12-02T11:19:51.171Z,99.90
2018-12-02T11:24:36.384Z,99.90
2018-12-02T11:29:21.642Z,99.90
2018-12-02T11:34:07.044Z,99.90
2018-12-02T11:38:52.431Z,98.10
2018-12-02T11:43:37.699Z,99.80
2018-12-02T11:48:23.043Z,98.20
2018-12-02T11:53:08.622Z,95.10
2018-12-02T11:57:54.046Z,96.60
2018-12-02T12:02:39.550Z,98.90
2018-12-02T12:07:24.803Z,98.70
2018-12-02T12:12:10.257Z,99.90
2018-12-02T12:16:55.455Z,99.90
2018-12-02T12:21:40.615Z,99.90
2018-12-02T12:26:26.041Z,99.90
2018-12-02T12:31:11.340Z,99.90
2018-12-02T12:35:56.789Z,99.90
2018-12-02T12:40:42.449Z,99.90
2018-12-02T12:45:27.620Z,99.90
2018-12-02T12:50:14.702Z,97.60
2018-12-02T12:55:00.271Z,99.90
2018-12-02T12:59:45.412Z,99.90
2018-12-02T13:04:30.817Z,99.90
2018-12-02T13:09:15.930Z,99.90
2018-12-02T13:14:01.215Z,99.90
2018-12-02T13:18:46.389Z,98.60
2018-12-02T13:23:31.360Z,96.80
2018-12-02T13:28:16.770Z,94.40
2018-12-02T13:33:01.873Z,93.40
2018-12-02T13:37:47.112Z,93.80
2018-12-02T13:42:32.157Z,94.20
2018-12-02T13:47:17.226Z,95.20
2018-12-02T13:52:02.385Z,95.30
2018-12-02T13:56:47.403Z,94.50
2018-12-02T14:01:33.213Z,95.30
2018-12-02T14:06:18.670Z,96.80
2018-12-02T14:11:04.550Z,96.00
2018-12-02T14:18:02.456Z,96.40
2018-12-02T14:22:48.238Z,96.50
2018-12-02T14:27:34.125Z,97.60
2018-12-02T14:32:20.515Z,98.20
2018-12-02T14:37:06.246Z,99.90
2018-12-02T14:41:51.838Z,99.30
2018-12-02T14:46:37.765Z,98.40
2018-12-02T14:51:23.154Z,96.00
2018-12-02T14:56:08.998Z,96.50
2018-12-02T15:00:54.591Z,96.30
2018-12-02T15:05:39.953Z,97.80
2018-12-02T15:10:25.812Z,98.50
2018-12-02T15:15:13.659Z,99.40
2018-12-02T15:19:59.398Z,99.90
2018-12-02T15:24:44.748Z,99.90
2018-12-02T15:29:30.352Z,99.90
2018-12-02T15:34:15.740Z,99.90
2018-12-02T15:39:01.240Z,99.90
2018-12-02T15:43:46.824Z,99.90
2018-12-02T15:48:32.633Z,99.90
2018-12-02T15:53:18.232Z,99.90
2018-12-02T15:58:07.236Z,99.90
2018-12-02T16:02:52.897Z,99.90
2018-12-02T16:07:38.538Z,99.90
2018-12-02T16:12:23.952Z,99.90
2018-12-02T16:17:09.884Z,99.90
2018-12-02T16:21:55.758Z,99.90
2018-12-02T16:26:41.468Z,99.90
2018-12-02T16:31:27.199Z,99.90
2018-12-02T16:36:12.724Z,99.90
2018-12-02T16:40:58.163Z,99.90
2018-12-02T16:45:43.649Z,99.90
2018-12-02T16:50:31.130Z,99.90
2018-12-02T16:55:18.356Z,99.90
2018-12-02T17:00:04.011Z,99.90
2018-12-02T17:04:49.483Z,99.90
2018-12-02T17:09:34.886Z,99.90
2018-12-02T17:14:20.585Z,99.90
2018-12-02T17:19:07.411Z,99.90
2018-12-02T17:23:53.044Z,99.90
2018-12-02T17:28:38.655Z,99.90
2018-12-02T17:33:24.444Z,99.90
2018-12-02T17:38:10.372Z,99.90
2018-12-02T17:42:55.960Z,99.90
2018-12-02T17:47:41.803Z,99.90
2018-12-02T17:52:27.803Z,99.90
2018-12-02T17:57:13.776Z,99.90
2018-12-02T18:01:59.672Z,99.90
2018-12-02T18:06:45.239Z,99.90
2018-12-02T18:11:31.518Z,99.90
2018-12-02T18:16:17.293Z,99.90
2018-12-02T18:21:03.209Z,99.90
2018-12-02T18:25:49.105Z,99.90
2018-12-02T18:30:35.082Z,99.90
2018-12-02T18:35:31.722Z,99.90
2018-12-02T18:40:17.626Z,99.90
2018-12-02T18:45:03.542Z,99.90
2018-12-02T18:49:49.757Z,99.90
2018-12-02T18:54:35.782Z,99.90
2018-12-02T18:59:21.472Z,99.90
2018-12-02T19:04:07.776Z,99.90
2018-12-02T19:08:53.354Z,99.90
2018-12-02T19:13:43.555Z,99.90
2018-12-02T19:18:25.280Z,99.90
2018-12-02T19:23:13.076Z,99.90
2018-12-02T19:27:59.136Z,99.90
2018-12-02T19:32:45.627Z,99.90
2018-12-02T19:37:31.561Z,99.90
2018-12-02T19:42:17.552Z,99.90
2018-12-02T19:47:03.586Z,99.90
2018-12-02T19:51:49.266Z,99.90
2018-12-02T19:56:35.171Z,99.90
2018-12-02T20:01:20.924Z,99.90
2018-12-02T20:06:06.822Z,99.90
2018-12-02T20:10:55.234Z,99.90
2018-12-02T20:15:45.677Z,99.90
2018-12-02T20:20:37.409Z,99.90
2018-12-02T20:25:36.922Z,99.90
2018-12-02T20:30:22.944Z,99.90
2018-12-02T20:35:10.052Z,99.90
2018-12-02T20:39:55.724Z,99.90
2018-12-02T20:44:41.899Z,99.90
2018-12-02T20:49:27.770Z,99.90
2018-12-02T20:54:13.626Z,99.90
2018-12-02T20:58:59.528Z,99.90
2018-12-02T21:03:47.536Z,99.90
2018-12-02T21:08:33.272Z,99.90
2018-12-02T21:13:19.086Z,99.90
2018-12-02T21:18:05.093Z,99.90
2018-12-02T21:22:51.406Z,99.90
2018-12-02T21:27:37.545Z,99.90
2018-12-02T21:32:23.316Z,99.90
2018-12-02T21:37:09.200Z,99.90
2018-12-02T21:41:54.903Z,99.90
2018-12-02T21:46:40.699Z,99.90
2018-12-02T21:51:26.437Z,99.90
2018-12-02T21:56:12.791Z,99.90
2018-12-02T22:01:03.568Z,99.90
2018-12-02T22:05:49.399Z,99.90
2018-12-02T22:10:35.209Z,99.90
2018-12-02T22:15:20.791Z,99.90
2018-12-02T22:20:11.525Z,99.90
2018-12-02T22:24:56.991Z,99.90
2018-12-02T22:29:42.422Z,99.90
2018-12-02T22:34:27.778Z,99.90
2018-12-02T22:39:13.049Z,99.90
2018-12-02T22:43:58.750Z,99.90
2018-12-02T22:48:44.258Z,99.90
2018-12-02T22:53:29.616Z,99.90
2018-12-02T22:58:15.046Z,99.90
2018-12-02T23:03:05.556Z,99.90
2018-12-02T23:07:50.934Z,99.90
2018-12-02T23:12:36.134Z,99.90
2018-12-02T23:17:23.001Z,99.90
2018-12-02T23:22:08.402Z,99.90
2018-12-02T23:26:53.744Z,99.90
2018-12-02T23:31:39.000Z,99.90
2018-12-02T23:36:24.382Z,99.90
2018-12-02T23:41:09.554Z,99.90
2018-12-02T23:45:54.549Z,99.90
2018-12-02T23:50:39.420Z,99.90
2018-12-02T23:55:24.775Z,99.90
